sensor_id;sensor_type;location;lat;lon;timestamp;temperature;humidity
7654;DHT22;3869;48.406;10.774;2022-08-30T00:01:33;16.70;99.90
7654;DHT22;3869;48.406;10.774;2022-08-30T00:04:02;16.70;99.90
7654;DHT22;3869;48.406;10.774;2022-08-30T00:06:33;16.60;99.90
7654;DHT22;3869;48.406;10.774;2022-08-30T00:09:01;16.60;99.90
7654;DHT22;3869;48.406;10.774;2022-08-30T00:11:29;16.60;99.90
7654;DHT22;3869;48.406;10.774;2022-08-30T00:13:57;16.70;99.90
7654;DHT22;3869;48.406;10.774;2022-08-30T00:16:25;16.60;99.90
7654;DHT22;3869;48.406;10.774;2022-08-30T00:18:54;16.50;99.90
7654;DHT22;3869;48.406;10.774;2022-08-30T00:21:25;16.50;99.90
7654;DHT22;3869;48.406;10.774;2022-08-30T00:23:53;16.50;99.90
7654;DHT22;3869;48.406;10.774;2022-08-30T00:26:21;16.40;99.90
7654;DHT22;3869;48.406;10.774;2022-08-30T00:28:49;16.40;99.90
7654;DHT22;3869;48.406;10.774;2022-08-30T00:31:17;16.40;99.90
7654;DHT22;3869;48.406;10.774;2022-08-30T00:33:45;16.40;99.90
7654;DHT22;3869;48.406;10.774;2022-08-30T00:36:13;16.30;99.90
7654;DHT22;3869;48.406;10.774;2022-08-30T00:38:43;16.40;99.90
7654;DHT22;3869;48.406;10.774;2022-08-30T00:41:11;16.40;99.90
7654;DHT22;3869;48.406;10.774;2022-08-30T00:43:39;16.40;99.90
7654;DHT22;3869;48.406;10.774;2022-08-30T00:46:07;16.40;99.90
7654;DHT22;3869;48.406;10.774;2022-08-30T00:48:38;16.40;99.90
7654;DHT22;3869;48.406;10.774;2022-08-30T00:51:08;16.30;99.90
7654;DHT22;3869;48.406;10.774;2022-08-30T00:53:41;16.30;99.90
7654;DHT22;3869;48.406;10.774;2022-08-30T00:56:11;16.20;99.90
7654;DHT22;3869;48.406;10.774;2022-08-30T00:58:44;16.20;99.90
7654;DHT22;3869;48.406;10.774;2022-08-30T01:01:13;16.20;99.90
7654;DHT22;3869;48.406;10.774;2022-08-30T01:03:42;16.10;99.90
7654;DHT22;3869;48.406;10.774;2022-08-30T01:06:11;16.10;99.90
7654;DHT22;3869;48.406;10.774;2022-08-30T01:08:41;16.10;99.90
7654;DHT22;3869;48.406;10.774;2022-08-30T01:11:11;16.10;99.90
7654;DHT22;3869;48.406;10.774;2022-08-30T01:13:40;16.10;99.90
7654;DHT22;3869;48.406;10.774;2022-08-30T01:16:08;16.10;99.90
7654;DHT22;3869;48.406;10.774;2022-08-30T01:18:37;16.10;99.90
7654;DHT22;3869;48.406;10.774;2022-08-30T01:21:12;16.10;99.90
7654;DHT22;3869;48.406;10.774;2022-08-30T01:23:45;16.10;99.90
7654;DHT22;3869;48.406;10.774;2022-08-30T01:26:14;16.00;99.90
7654;DHT22;3869;48.406;10.774;2022-08-30T01:28:51;16.00;99.90
7654;DHT22;3869;48.406;10.774;2022-08-30T01:31:21;16.00;99.90
7654;DHT22;3869;48.406;10.774;2022-08-30T01:33:49;16.00;99.90
7654;DHT22;3869;48.406;10.774;2022-08-30T01:36:18;15.90;99.90
7654;DHT22;3869;48.406;10.774;2022-08-30T01:38:50;15.80;99.90
7654;DHT22;3869;48.406;10.774;2022-08-30T01:41:21;15.90;99.90
7654;DHT22;3869;48.406;10.774;2022-08-30T01:43:51;15.90;99.90
7654;DHT22;3869;48.406;10.774;2022-08-30T01:46:21;15.90;99.90
7654;DHT22;3869;48.406;10.774;2022-08-30T01:48:52;15.90;99.90
7654;DHT22;3869;48.406;10.774;2022-08-30T01:51:22;16.00;99.90
7654;DHT22;3869;48.406;10.774;2022-08-30T01:53:52;15.90;99.90
7654;DHT22;3869;48.406;10.774;2022-08-30T01:56:21;15.90;99.90
7654;DHT22;3869;48.406;10.774;2022-08-30T01:58:50;15.80;99.90
7654;DHT22;3869;48.406;10.774;2022-08-30T02:01:22;15.80;99.90
7654;DHT22;3869;48.406;10.774;2022-08-30T02:03:53;15.80;99.90
7654;DHT22;3869;48.406;10.774;2022-08-30T02:06:22;15.80;99.90
7654;DHT22;3869;48.406;10.774;2022-08-30T02:08:51;15.80;99.90
7654;DHT22;3869;48.406;10.774;2022-08-30T02:11:19;15.80;99.90
7654;DHT22;3869;48.406;10.774;2022-08-30T02:13:47;15.80;99.90
7654;DHT22;3869;48.406;10.774;2022-08-30T02:16:18;15.70;99.90
7654;DHT22;3869;48.406;10.774;2022-08-30T02:18:49;15.70;99.90
7654;DHT22;3869;48.406;10.774;2022-08-30T02:21:18;15.70;99.90
7654;DHT22;3869;48.406;10.774;2022-08-30T02:23:46;15.70;99.90
7654;DHT22;3869;48.406;10.774;2022-08-30T02:26:16;15.70;99.90
7654;DHT22;3869;48.406;10.774;2022-08-30T02:28:45;15.60;99.90
7654;DHT22;3869;48.406;10.774;2022-08-30T02:31:16;15.70;99.90
7654;DHT22;3869;48.406;10.774;2022-08-30T02:33:47;15.70;99.90
7654;DHT22;3869;48.406;10.774;2022-08-30T02:36:17;15.60;99.90
7654;DHT22;3869;48.406;10.774;2022-08-30T02:38:46;15.60;99.90
7654;DHT22;3869;48.406;10.774;2022-08-30T02:41:16;15.70;99.90
7654;DHT22;3869;48.406;10.774;2022-08-30T02:43:44;15.60;99.90
7654;DHT22;3869;48.406;10.774;2022-08-30T02:46:13;15.60;99.90
7654;DHT22;3869;48.406;10.774;2022-08-30T02:48:41;15.50;99.90
7654;DHT22;3869;48.406;10.774;2022-08-30T02:51:11;15.50;99.90
7654;DHT22;3869;48.406;10.774;2022-08-30T02:53:41;15.50;99.90
7654;DHT22;3869;48.406;10.774;2022-08-30T02:56:10;15.50;99.90
7654;DHT22;3869;48.406;10.774;2022-08-30T02:58:40;15.50;99.90
7654;DHT22;3869;48.406;10.774;2022-08-30T03:01:10;15.50;99.90
7654;DHT22;3869;48.406;10.774;2022-08-30T03:03:38;15.40;99.90
7654;DHT22;3869;48.406;10.774;2022-08-30T03:06:07;15.30;99.90
7654;DHT22;3869;48.406;10.774;2022-08-30T03:08:36;15.30;99.90
7654;DHT22;3869;48.406;10.774;2022-08-30T03:11:05;15.30;99.90
7654;DHT22;3869;48.406;10.774;2022-08-30T03:13:33;15.30;99.90
7654;DHT22;3869;48.406;10.774;2022-08-30T03:16:02;15.30;99.90
7654;DHT22;3869;48.406;10.774;2022-08-30T03:18:30;15.30;99.90
7654;DHT22;3869;48.406;10.774;2022-08-30T03:20:59;15.30;99.90
7654;DHT22;3869;48.406;10.774;2022-08-30T03:23:27;15.30;99.90
7654;DHT22;3869;48.406;10.774;2022-08-30T03:25:55;15.30;99.90
7654;DHT22;3869;48.406;10.774;2022-08-30T03:28:23;15.30;99.90
7654;DHT22;3869;48.406;10.774;2022-08-30T03:30:51;15.30;99.90
7654;DHT22;3869;48.406;10.774;2022-08-30T03:33:21;15.20;99.90
7654;DHT22;3869;48.406;10.774;2022-08-30T03:35:50;15.20;99.90
7654;DHT22;3869;48.406;10.774;2022-08-30T03:38:18;15.20;99.90
7654;DHT22;3869;48.406;10.774;2022-08-30T03:40:46;15.20;99.90
7654;DHT22;3869;48.406;10.774;2022-08-30T03:43:15;15.20;99.90
7654;DHT22;3869;48.406;10.774;2022-08-30T03:45:43;15.20;99.90
7654;DHT22;3869;48.406;10.774;2022-08-30T03:48:11;15.20;99.90
7654;DHT22;3869;48.406;10.774;2022-08-30T03:50:40;15.20;99.90
7654;DHT22;3869;48.406;10.774;2022-08-30T03:53:09;15.10;99.90
7654;DHT22;3869;48.406;10.774;2022-08-30T03:55:38;15.00;99.90
7654;DHT22;3869;48.406;10.774;2022-08-30T03:58:06;15.00;99.90
7654;DHT22;3869;48.406;10.774;2022-08-30T04:00:34;15.10;99.90
7654;DHT22;3869;48.406;10.774;2022-08-30T04:03:03;15.10;99.90
7654;DHT22;3869;48.406;10.774;2022-08-30T04:05:31;15.10;99.90
7654;DHT22;3869;48.406;10.774;2022-08-30T04:08:00;15.10;99.90
7654;DHT22;3869;48.406;10.774;2022-08-30T04:10:28;15.00;99.90
7654;DHT22;3869;48.406;10.774;2022-08-30T04:12:56;14.90;99.90
7654;DHT22;3869;48.406;10.774;2022-08-30T04:15:24;14.80;99.90
7654;DHT22;3869;48.406;10.774;2022-08-30T04:17:52;14.80;99.90
7654;DHT22;3869;48.406;10.774;2022-08-30T04:20:20;14.80;99.90
7654;DHT22;3869;48.406;10.774;2022-08-30T04:22:50;14.90;99.90
7654;DHT22;3869;48.406;10.774;2022-08-30T04:25:20;14.80;99.90
7654;DHT22;3869;48.406;10.774;2022-08-30T04:27:48;14.80;99.90
7654;DHT22;3869;48.406;10.774;2022-08-30T04:30:17;14.80;99.90
7654;DHT22;3869;48.406;10.774;2022-08-30T04:32:45;14.80;99.90
7654;DHT22;3869;48.406;10.774;2022-08-30T04:35:13;14.70;99.90
7654;DHT22;3869;48.406;10.774;2022-08-30T04:37:41;14.70;99.90
7654;DHT22;3869;48.406;10.774;2022-08-30T04:40:10;14.70;99.90
7654;DHT22;3869;48.406;10.774;2022-08-30T04:42:41;14.70;99.90
7654;DHT22;3869;48.406;10.774;2022-08-30T04:45:13;14.80;99.90
7654;DHT22;3869;48.406;10.774;2022-08-30T04:47:42;14.80;99.90
7654;DHT22;3869;48.406;10.774;2022-08-30T04:50:12;14.70;99.90
7654;DHT22;3869;48.406;10.774;2022-08-30T04:52:41;14.70;99.90
7654;DHT22;3869;48.406;10.774;2022-08-30T04:55:10;14.80;99.90
7654;DHT22;3869;48.406;10.774;2022-08-30T04:57:46;14.80;99.90
7654;DHT22;3869;48.406;10.774;2022-08-30T05:00:15;14.70;99.90
7654;DHT22;3869;48.406;10.774;2022-08-30T05:02:43;14.70;99.90
7654;DHT22;3869;48.406;10.774;2022-08-30T05:05:12;14.70;99.90
7654;DHT22;3869;48.406;10.774;2022-08-30T05:07:57;14.70;99.90
7654;DHT22;3869;48.406;10.774;2022-08-30T05:10:25;14.70;99.90
7654;DHT22;3869;48.406;10.774;2022-08-30T05:12:55;14.80;99.90
7654;DHT22;3869;48.406;10.774;2022-08-30T05:15:23;14.80;99.90
7654;DHT22;3869;48.406;10.774;2022-08-30T05:17:51;14.80;99.90
7654;DHT22;3869;48.406;10.774;2022-08-30T05:20:20;14.80;99.90
7654;DHT22;3869;48.406;10.774;2022-08-30T05:22:48;14.90;99.90
7654;DHT22;3869;48.406;10.774;2022-08-30T05:25:21;15.00;99.90
7654;DHT22;3869;48.406;10.774;2022-08-30T05:27:49;15.10;99.90
7654;DHT22;3869;48.406;10.774;2022-08-30T05:30:20;15.10;99.90
7654;DHT22;3869;48.406;10.774;2022-08-30T05:32:48;15.10;99.90
7654;DHT22;3869;48.406;10.774;2022-08-30T05:35:17;15.10;99.90
7654;DHT22;3869;48.406;10.774;2022-08-30T05:37:51;15.10;99.90
7654;DHT22;3869;48.406;10.774;2022-08-30T05:40:20;15.10;99.90
7654;DHT22;3869;48.406;10.774;2022-08-30T05:42:48;15.10;99.90
7654;DHT22;3869;48.406;10.774;2022-08-30T05:45:16;15.10;99.90
7654;DHT22;3869;48.406;10.774;2022-08-30T05:47:45;15.20;99.90
7654;DHT22;3869;48.406;10.774;2022-08-30T05:50:15;15.30;99.90
7654;DHT22;3869;48.406;10.774;2022-08-30T05:52:43;15.40;99.90
7654;DHT22;3869;48.406;10.774;2022-08-30T05:55:13;15.50;99.90
7654;DHT22;3869;48.406;10.774;2022-08-30T05:57:41;15.60;99.90
7654;DHT22;3869;48.406;10.774;2022-08-30T06:00:12;15.60;99.90
7654;DHT22;3869;48.406;10.774;2022-08-30T06:02:41;15.70;99.90
7654;DHT22;3869;48.406;10.774;2022-08-30T06:05:11;15.70;99.90
7654;DHT22;3869;48.406;10.774;2022-08-30T06:07:40;15.70;99.90
7654;DHT22;3869;48.406;10.774;2022-08-30T06:10:09;15.80;99.90
7654;DHT22;3869;48.406;10.774;2022-08-30T06:12:38;15.90;99.90
7654;DHT22;3869;48.406;10.774;2022-08-30T06:15:07;16.00;99.90
7654;DHT22;3869;48.406;10.774;2022-08-30T06:17:35;16.00;99.90
7654;DHT22;3869;48.406;10.774;2022-08-30T06:20:06;16.10;99.90
7654;DHT22;3869;48.406;10.774;2022-08-30T06:22:36;16.20;99.90
7654;DHT22;3869;48.406;10.774;2022-08-30T06:25:05;16.30;99.90
7654;DHT22;3869;48.406;10.774;2022-08-30T06:27:33;16.30;99.90
7654;DHT22;3869;48.406;10.774;2022-08-30T06:30:02;16.40;99.90
7654;DHT22;3869;48.406;10.774;2022-08-30T06:32:30;16.50;99.90
7654;DHT22;3869;48.406;10.774;2022-08-30T06:34:58;16.60;99.90
7654;DHT22;3869;48.406;10.774;2022-08-30T06:37:26;16.70;99.90
7654;DHT22;3869;48.406;10.774;2022-08-30T06:39:57;16.90;99.90
7654;DHT22;3869;48.406;10.774;2022-08-30T06:42:25;16.90;99.90
7654;DHT22;3869;48.406;10.774;2022-08-30T06:44:58;17.00;99.90
7654;DHT22;3869;48.406;10.774;2022-08-30T06:47:27;17.10;99.90
7654;DHT22;3869;48.406;10.774;2022-08-30T06:49:56;17.20;99.90
7654;DHT22;3869;48.406;10.774;2022-08-30T06:52:24;17.30;99.90
7654;DHT22;3869;48.406;10.774;2022-08-30T06:54:56;17.40;99.90
7654;DHT22;3869;48.406;10.774;2022-08-30T06:57:25;17.50;99.90
7654;DHT22;3869;48.406;10.774;2022-08-30T06:59:55;17.50;99.90
7654;DHT22;3869;48.406;10.774;2022-08-30T07:02:23;17.60;99.90
7654;DHT22;3869;48.406;10.774;2022-08-30T07:04:52;17.70;99.90
7654;DHT22;3869;48.406;10.774;2022-08-30T07:07:20;17.80;99.90
7654;DHT22;3869;48.406;10.774;2022-08-30T07:09:48;17.90;99.90
7654;DHT22;3869;48.406;10.774;2022-08-30T07:12:18;18.00;99.90
7654;DHT22;3869;48.406;10.774;2022-08-30T07:14:46;18.10;99.90
7654;DHT22;3869;48.406;10.774;2022-08-30T07:17:14;18.20;99.90
7654;DHT22;3869;48.406;10.774;2022-08-30T07:20:01;18.20;99.90
7654;DHT22;3869;48.406;10.774;2022-08-30T07:22:31;18.30;99.90
7654;DHT22;3869;48.406;10.774;2022-08-30T07:24:59;18.50;99.90
7654;DHT22;3869;48.406;10.774;2022-08-30T07:27:29;18.60;99.90
7654;DHT22;3869;48.406;10.774;2022-08-30T07:29:57;18.70;99.90
7654;DHT22;3869;48.406;10.774;2022-08-30T07:32:26;18.70;99.90
7654;DHT22;3869;48.406;10.774;2022-08-30T07:34:54;18.90;99.90
7654;DHT22;3869;48.406;10.774;2022-08-30T07:37:23;18.90;99.90
7654;DHT22;3869;48.406;10.774;2022-08-30T07:39:51;19.00;99.90
7654;DHT22;3869;48.406;10.774;2022-08-30T07:42:19;19.10;99.90
7654;DHT22;3869;48.406;10.774;2022-08-30T07:44:49;19.20;99.90
7654;DHT22;3869;48.406;10.774;2022-08-30T07:47:22;19.30;99.90
7654;DHT22;3869;48.406;10.774;2022-08-30T07:49:50;19.30;99.90
7654;DHT22;3869;48.406;10.774;2022-08-30T07:52:18;19.40;99.90
7654;DHT22;3869;48.406;10.774;2022-08-30T07:54:46;19.50;99.90
7654;DHT22;3869;48.406;10.774;2022-08-30T07:57:18;19.60;99.90
7654;DHT22;3869;48.406;10.774;2022-08-30T07:59:46;19.70;99.90
7654;DHT22;3869;48.406;10.774;2022-08-30T08:02:16;19.80;99.90
7654;DHT22;3869;48.406;10.774;2022-08-30T08:04:44;19.90;99.90
7654;DHT22;3869;48.406;10.774;2022-08-30T08:07:12;20.00;99.90
7654;DHT22;3869;48.406;10.774;2022-08-30T08:09:40;20.10;99.90
7654;DHT22;3869;48.406;10.774;2022-08-30T08:12:08;20.10;99.90
7654;DHT22;3869;48.406;10.774;2022-08-30T08:14:37;20.20;99.90
7654;DHT22;3869;48.406;10.774;2022-08-30T08:17:07;20.20;99.90
7654;DHT22;3869;48.406;10.774;2022-08-30T08:19:36;20.30;99.90
7654;DHT22;3869;48.406;10.774;2022-08-30T08:22:04;20.30;99.90
7654;DHT22;3869;48.406;10.774;2022-08-30T08:24:47;20.40;99.90
7654;DHT22;3869;48.406;10.774;2022-08-30T08:27:15;20.50;99.90
7654;DHT22;3869;48.406;10.774;2022-08-30T08:29:43;20.50;99.90
7654;DHT22;3869;48.406;10.774;2022-08-30T08:32:11;20.60;99.90
7654;DHT22;3869;48.406;10.774;2022-08-30T08:34:40;20.70;99.90
7654;DHT22;3869;48.406;10.774;2022-08-30T08:37:08;20.70;99.90
7654;DHT22;3869;48.406;10.774;2022-08-30T08:39:36;20.80;99.90
7654;DHT22;3869;48.406;10.774;2022-08-30T08:42:10;20.80;99.90
7654;DHT22;3869;48.406;10.774;2022-08-30T08:44:49;20.90;99.90
7654;DHT22;3869;48.406;10.774;2022-08-30T08:47:25;20.90;99.90
7654;DHT22;3869;48.406;10.774;2022-08-30T08:50:00;21.00;99.90
7654;DHT22;3869;48.406;10.774;2022-08-30T08:52:33;21.10;99.90
7654;DHT22;3869;48.406;10.774;2022-08-30T08:55:22;21.10;99.90
7654;DHT22;3869;48.406;10.774;2022-08-30T08:57:50;21.20;99.90
7654;DHT22;3869;48.406;10.774;2022-08-30T09:00:19;21.30;99.90
7654;DHT22;3869;48.406;10.774;2022-08-30T09:02:51;21.40;99.90
7654;DHT22;3869;48.406;10.774;2022-08-30T09:05:25;21.40;99.90
7654;DHT22;3869;48.406;10.774;2022-08-30T09:07:59;21.50;99.90
7654;DHT22;3869;48.406;10.774;2022-08-30T09:10:34;21.50;99.90
7654;DHT22;3869;48.406;10.774;2022-08-30T09:13:16;21.70;99.90
7654;DHT22;3869;48.406;10.774;2022-08-30T09:15:48;21.80;99.90
7654;DHT22;3869;48.406;10.774;2022-08-30T09:18:39;21.90;99.90
7654;DHT22;3869;48.406;10.774;2022-08-30T09:21:09;21.90;99.90
7654;DHT22;3869;48.406;10.774;2022-08-30T09:23:47;22.00;99.90
7654;DHT22;3869;48.406;10.774;2022-08-30T09:26:27;22.10;99.90
7654;DHT22;3869;48.406;10.774;2022-08-30T09:28:55;22.10;99.90
7654;DHT22;3869;48.406;10.774;2022-08-30T09:31:27;22.10;99.90
7654;DHT22;3869;48.406;10.774;2022-08-30T09:33:59;22.30;99.90
7654;DHT22;3869;48.406;10.774;2022-08-30T09:36:34;22.30;99.90
7654;DHT22;3869;48.406;10.774;2022-08-30T09:39:14;22.30;99.90
7654;DHT22;3869;48.406;10.774;2022-08-30T09:41:44;22.50;99.90
7654;DHT22;3869;48.406;10.774;2022-08-30T09:44:17;22.50;99.90
7654;DHT22;3869;48.406;10.774;2022-08-30T09:46:48;22.60;99.90
7654;DHT22;3869;48.406;10.774;2022-08-30T09:49:28;22.60;99.90
7654;DHT22;3869;48.406;10.774;2022-08-30T09:52:08;22.70;99.90
7654;DHT22;3869;48.406;10.774;2022-08-30T09:54:45;22.80;99.90
7654;DHT22;3869;48.406;10.774;2022-08-30T09:57:23;22.90;99.90
7654;DHT22;3869;48.406;10.774;2022-08-30T10:00:03;23.00;99.90
7654;DHT22;3869;48.406;10.774;2022-08-30T10:02:44;23.00;99.90
7654;DHT22;3869;48.406;10.774;2022-08-30T10:05:21;23.10;99.90
7654;DHT22;3869;48.406;10.774;2022-08-30T10:07:58;23.20;99.90
7654;DHT22;3869;48.406;10.774;2022-08-30T10:10:34;23.20;99.90
7654;DHT22;3869;48.406;10.774;2022-08-30T10:13:27;23.30;99.90
7654;DHT22;3869;48.406;10.774;2022-08-30T10:16:05;23.30;99.90
7654;DHT22;3869;48.406;10.774;2022-08-30T10:18:42;23.30;99.90
7654;DHT22;3869;48.406;10.774;2022-08-30T10:21:17;23.40;99.90
7654;DHT22;3869;48.406;10.774;2022-08-30T10:23:51;23.50;99.90
7654;DHT22;3869;48.406;10.774;2022-08-30T10:26:26;23.50;99.90
7654;DHT22;3869;48.406;10.774;2022-08-30T10:28:58;23.60;99.90
7654;DHT22;3869;48.406;10.774;2022-08-30T10:31:35;23.60;99.90
7654;DHT22;3869;48.406;10.774;2022-08-30T10:34:06;23.70;99.90
7654;DHT22;3869;48.406;10.774;2022-08-30T10:36:41;23.80;99.90
7654;DHT22;3869;48.406;10.774;2022-08-30T10:39:17;23.80;99.90
7654;DHT22;3869;48.406;10.774;2022-08-30T10:41:49;23.90;99.90
7654;DHT22;3869;48.406;10.774;2022-08-30T10:44:21;23.90;99.90
7654;DHT22;3869;48.406;10.774;2022-08-30T10:47:01;23.90;99.80
7654;DHT22;3869;48.406;10.774;2022-08-30T10:49:34;24.00;99.90
7654;DHT22;3869;48.406;10.774;2022-08-30T10:52:35;24.10;99.90
7654;DHT22;3869;48.406;10.774;2022-08-30T10:55:12;24.20;99.90
7654;DHT22;3869;48.406;10.774;2022-08-30T10:57:41;24.30;99.90
7654;DHT22;3869;48.406;10.774;2022-08-30T11:00:13;24.30;99.90
7654;DHT22;3869;48.406;10.774;2022-08-30T11:03:12;24.40;99.90
7654;DHT22;3869;48.406;10.774;2022-08-30T11:12:00;24.70;98.30
7654;DHT22;3869;48.406;10.774;2022-08-30T11:14:29;24.70;98.70
7654;DHT22;3869;48.406;10.774;2022-08-30T11:16:59;24.80;98.30
7654;DHT22;3869;48.406;10.774;2022-08-30T11:19:36;24.80;97.90
7654;DHT22;3869;48.406;10.774;2022-08-30T11:22:11;24.90;97.60
7654;DHT22;3869;48.406;10.774;2022-08-30T11:24:59;24.90;97.80
7654;DHT22;3869;48.406;10.774;2022-08-30T11:27:52;25.00;97.50
7654;DHT22;3869;48.406;10.774;2022-08-30T11:30:48;25.00;97.40
7654;DHT22;3869;48.406;10.774;2022-08-30T11:33:42;25.10;96.90
7654;DHT22;3869;48.406;10.774;2022-08-30T11:39:53;25.00;96.10
7654;DHT22;3869;48.406;10.774;2022-08-30T11:42:42;25.00;96.10
7654;DHT22;3869;48.406;10.774;2022-08-30T11:45:43;25.10;96.40
7654;DHT22;3869;48.406;10.774;2022-08-30T11:48:39;25.20;96.10
7654;DHT22;3869;48.406;10.774;2022-08-30T11:51:43;25.20;96.10
7654;DHT22;3869;48.406;10.774;2022-08-30T11:54:36;25.40;96.70
7654;DHT22;3869;48.406;10.774;2022-08-30T11:57:17;25.60;96.10
7654;DHT22;3869;48.406;10.774;2022-08-30T11:59:57;25.60;96.00
7654;DHT22;3869;48.406;10.774;2022-08-30T12:02:45;25.70;95.80
7654;DHT22;3869;48.406;10.774;2022-08-30T12:08:44;25.80;95.80
7654;DHT22;3869;48.406;10.774;2022-08-30T12:11:50;25.90;95.10
7654;DHT22;3869;48.406;10.774;2022-08-30T12:14:44;25.90;95.10
7654;DHT22;3869;48.406;10.774;2022-08-30T12:20:31;26.10;95.50
7654;DHT22;3869;48.406;10.774;2022-08-30T12:23:16;26.20;95.20
7654;DHT22;3869;48.406;10.774;2022-08-30T12:25:45;26.10;94.50
7654;DHT22;3869;48.406;10.774;2022-08-30T12:28:19;26.10;94.00
7654;DHT22;3869;48.406;10.774;2022-08-30T12:30:48;26.20;95.40
7654;DHT22;3869;48.406;10.774;2022-08-30T12:33:26;26.20;94.40
7654;DHT22;3869;48.406;10.774;2022-08-30T12:36:12;26.10;94.00
7654;DHT22;3869;48.406;10.774;2022-08-30T12:38:40;26.20;93.90
7654;DHT22;3869;48.406;10.774;2022-08-30T12:41:17;26.20;94.70
7654;DHT22;3869;48.406;10.774;2022-08-30T12:43:48;26.30;95.30
7654;DHT22;3869;48.406;10.774;2022-08-30T12:46:17;26.30;95.10
7654;DHT22;3869;48.406;10.774;2022-08-30T12:48:48;26.10;93.80
7654;DHT22;3869;48.406;10.774;2022-08-30T12:51:33;26.10;93.50
7654;DHT22;3869;48.406;10.774;2022-08-30T12:54:06;26.10;93.10
7654;DHT22;3869;48.406;10.774;2022-08-30T12:56:46;26.10;93.00
7654;DHT22;3869;48.406;10.774;2022-08-30T12:59:45;26.10;93.40
7654;DHT22;3869;48.406;10.774;2022-08-30T13:02:25;26.20;93.90
7654;DHT22;3869;48.406;10.774;2022-08-30T13:04:56;26.20;93.30
7654;DHT22;3869;48.406;10.774;2022-08-30T13:07:31;26.20;93.80
7654;DHT22;3869;48.406;10.774;2022-08-30T13:10:14;26.20;94.00
7654;DHT22;3869;48.406;10.774;2022-08-30T13:12:59;26.30;94.00
7654;DHT22;3869;48.406;10.774;2022-08-30T13:15:30;26.30;94.20
7654;DHT22;3869;48.406;10.774;2022-08-30T13:18:17;26.40;95.10
7654;DHT22;3869;48.406;10.774;2022-08-30T13:21:09;26.50;94.70
7654;DHT22;3869;48.406;10.774;2022-08-30T13:23:38;26.50;94.70
7654;DHT22;3869;48.406;10.774;2022-08-30T13:26:07;26.50;93.50
7654;DHT22;3869;48.406;10.774;2022-08-30T13:28:45;26.40;92.90
7654;DHT22;3869;48.406;10.774;2022-08-30T13:31:14;26.40;92.70
7654;DHT22;3869;48.406;10.774;2022-08-30T13:33:43;26.30;92.70
7654;DHT22;3869;48.406;10.774;2022-08-30T13:36:13;26.30;92.50
7654;DHT22;3869;48.406;10.774;2022-08-30T13:38:41;26.30;92.70
7654;DHT22;3869;48.406;10.774;2022-08-30T13:41:09;26.30;93.00
7654;DHT22;3869;48.406;10.774;2022-08-30T13:43:37;26.30;93.00
7654;DHT22;3869;48.406;10.774;2022-08-30T13:46:25;26.40;93.00
7654;DHT22;3869;48.406;10.774;2022-08-30T13:48:59;26.40;92.30
7654;DHT22;3869;48.406;10.774;2022-08-30T13:51:30;26.30;91.10
7654;DHT22;3869;48.406;10.774;2022-08-30T13:53:58;26.30;91.80
7654;DHT22;3869;48.406;10.774;2022-08-30T13:56:27;26.30;91.40
7654;DHT22;3869;48.406;10.774;2022-08-30T13:58:57;26.30;91.50
7654;DHT22;3869;48.406;10.774;2022-08-30T14:01:28;26.30;91.20
7654;DHT22;3869;48.406;10.774;2022-08-30T14:04:16;26.30;91.00
7654;DHT22;3869;48.406;10.774;2022-08-30T14:06:46;26.30;91.00
7654;DHT22;3869;48.406;10.774;2022-08-30T14:09:34;26.30;91.60
7654;DHT22;3869;48.406;10.774;2022-08-30T14:12:02;26.30;91.50
7654;DHT22;3869;48.406;10.774;2022-08-30T14:14:31;26.30;90.70
7654;DHT22;3869;48.406;10.774;2022-08-30T14:17:09;26.20;91.30
7654;DHT22;3869;48.406;10.774;2022-08-30T14:19:38;26.20;91.40
7654;DHT22;3869;48.406;10.774;2022-08-30T14:22:08;26.20;91.90
7654;DHT22;3869;48.406;10.774;2022-08-30T14:24:36;26.10;91.00
7654;DHT22;3869;48.406;10.774;2022-08-30T14:27:04;26.10;90.90
7654;DHT22;3869;48.406;10.774;2022-08-30T14:29:32;26.00;90.70
7654;DHT22;3869;48.406;10.774;2022-08-30T14:32:02;26.10;91.10
7654;DHT22;3869;48.406;10.774;2022-08-30T14:34:31;26.10;90.50
7654;DHT22;3869;48.406;10.774;2022-08-30T14:36:59;26.10;90.40
7654;DHT22;3869;48.406;10.774;2022-08-30T14:39:28;26.10;89.70
7654;DHT22;3869;48.406;10.774;2022-08-30T14:41:58;26.20;89.40
7654;DHT22;3869;48.406;10.774;2022-08-30T14:44:30;26.10;88.80
7654;DHT22;3869;48.406;10.774;2022-08-30T14:47:18;26.10;89.50
7654;DHT22;3869;48.406;10.774;2022-08-30T14:49:46;26.10;90.10
7654;DHT22;3869;48.406;10.774;2022-08-30T14:52:14;26.10;90.80
7654;DHT22;3869;48.406;10.774;2022-08-30T14:54:43;26.10;90.50
7654;DHT22;3869;48.406;10.774;2022-08-30T14:57:11;26.10;90.70
7654;DHT22;3869;48.406;10.774;2022-08-30T14:59:39;26.00;90.40
7654;DHT22;3869;48.406;10.774;2022-08-30T15:02:07;26.00;90.80
7654;DHT22;3869;48.406;10.774;2022-08-30T15:04:35;25.90;90.30
7654;DHT22;3869;48.406;10.774;2022-08-30T15:07:03;25.90;90.50
7654;DHT22;3869;48.406;10.774;2022-08-30T15:09:34;25.90;91.20
7654;DHT22;3869;48.406;10.774;2022-08-30T15:12:06;25.90;90.50
7654;DHT22;3869;48.406;10.774;2022-08-30T15:14:34;25.90;90.40
7654;DHT22;3869;48.406;10.774;2022-08-30T15:17:03;25.90;90.80
7654;DHT22;3869;48.406;10.774;2022-08-30T15:19:31;25.90;89.80
7654;DHT22;3869;48.406;10.774;2022-08-30T15:22:01;25.90;90.10
7654;DHT22;3869;48.406;10.774;2022-08-30T15:24:30;25.90;90.80
7654;DHT22;3869;48.406;10.774;2022-08-30T15:26:59;25.90;91.20
7654;DHT22;3869;48.406;10.774;2022-08-30T15:29:29;25.90;91.10
7654;DHT22;3869;48.406;10.774;2022-08-30T15:32:00;25.90;90.90
7654;DHT22;3869;48.406;10.774;2022-08-30T15:34:31;25.90;91.00
7654;DHT22;3869;48.406;10.774;2022-08-30T15:36:59;25.90;90.40
7654;DHT22;3869;48.406;10.774;2022-08-30T15:39:28;25.90;90.50
7654;DHT22;3869;48.406;10.774;2022-08-30T15:41:57;25.80;89.90
7654;DHT22;3869;48.406;10.774;2022-08-30T15:44:29;25.80;90.80
7654;DHT22;3869;48.406;10.774;2022-08-30T15:46:58;25.80;90.30
7654;DHT22;3869;48.406;10.774;2022-08-30T15:49:27;25.70;90.60
7654;DHT22;3869;48.406;10.774;2022-08-30T15:51:59;25.60;90.60
7654;DHT22;3869;48.406;10.774;2022-08-30T15:54:27;25.60;90.40
7654;DHT22;3869;48.406;10.774;2022-08-30T15:56:55;25.60;90.20
7654;DHT22;3869;48.406;10.774;2022-08-30T15:59:26;25.50;90.30
7654;DHT22;3869;48.406;10.774;2022-08-30T16:01:56;25.50;90.90
7654;DHT22;3869;48.406;10.774;2022-08-30T16:04:25;25.50;91.00
7654;DHT22;3869;48.406;10.774;2022-08-30T16:06:53;25.50;91.20
7654;DHT22;3869;48.406;10.774;2022-08-30T16:09:21;25.50;91.60
7654;DHT22;3869;48.406;10.774;2022-08-30T16:11:50;25.40;91.70
7654;DHT22;3869;48.406;10.774;2022-08-30T16:14:18;25.30;91.30
7654;DHT22;3869;48.406;10.774;2022-08-30T16:16:46;25.30;91.40
7654;DHT22;3869;48.406;10.774;2022-08-30T16:19:16;25.20;91.50
7654;DHT22;3869;48.406;10.774;2022-08-30T16:21:44;25.20;91.60
7654;DHT22;3869;48.406;10.774;2022-08-30T16:24:14;25.10;91.70
7654;DHT22;3869;48.406;10.774;2022-08-30T16:26:48;25.00;92.10
7654;DHT22;3869;48.406;10.774;2022-08-30T16:29:16;25.00;91.70
7654;DHT22;3869;48.406;10.774;2022-08-30T16:31:45;25.00;92.00